Bookmark and Share
Track history (hours):
 

Irish Sea

More information available from US FCC via Universal Licensing System and Coast Guard Vessel Documentation Center.

Last reported at 2014-Apr-12 03:25 UTC. Time now 2014-Apr-16 10:30 UTC.
Position N 39°29' W 074°09'.

Length 152 m; draft 6.8 m.

Type: Ship (hazmat cat B). MMSI: 366910920.

NotesDate/timePositionNaut miles runAvg speedWind from/ knotsBaromVisibWave heightAir tempDewpointWater temp
2014-Apr-12 03:25N 39°29' W 074°09'8 9.2
2014-Apr-12 02:33N 39°36' W 074°04'9 9.1
2014-Apr-12 01:33N 39°44' W 073°59'49 8.2
2014-Apr-11 19:29N 40°33' W 074°02'7 7.3
2014-Apr-11 18:33N 40°39' W 074°07'2 2.1
2014-Apr-11 17:32N 40°39' W 074°10'0 0.0
2014-Apr-11 15:17N 40°39' W 074°10'0 0.0
2014-Apr-11 14:26N 40°39' W 074°10'0 0.0
2014-Apr-11 13:29N 40°39' W 074°10'2 1.1
2014-Apr-11 11:09N 40°39' W 074°07'0 0.0
2014-Apr-11 10:33N 40°39' W 074°07'0 0.0
2014-Apr-11 09:33N 40°39' W 074°07'0 0.0
2014-Apr-11 08:21N 40°39' W 074°07'0 0.0
2014-Apr-11 07:33N 40°39' W 074°07'0 0.0
2014-Apr-11 06:33N 40°39' W 074°07'0 0.0
2014-Apr-11 05:21N 40°39' W 074°07'0 0.0
2014-Apr-11 04:21N 40°39' W 074°07'0 0.0
2014-Apr-11 03:33N 40°39' W 074°07'0 0.0
2014-Apr-11 02:33N 40°39' W 074°07'0 0.0
2014-Apr-11 00:32N 40°39' W 074°07'2 0.5
2014-Apr-10 19:31N 40°39' W 074°10'0 0.0
2014-Apr-10 18:33N 40°39' W 074°10'0 0.0
2014-Apr-10 16:32N 40°39' W 074°10'0 0.0
2014-Apr-10 15:33N 40°39' W 074°10'0 0.0
2014-Apr-10 14:33N 40°39' W 074°10'3 3.2
2014-Apr-10 13:33N 40°39' W 074°06'  
2014-Apr-08 07:33N 40°39' W 074°03'49 6.9
2014-Apr-08 00:23N 39°50' W 073°57'6 7.2
2014-Apr-07 23:33N 39°44' W 073°57'7 6.8
2014-Apr-07 22:32N 39°39' W 074°02'7 6.9
2014-Apr-07 21:33N 39°33' W 074°06'52 7.3
2014-Apr-07 14:30N 38°52' W 074°48'8 6.9
2014-Apr-07 13:23N 38°48' W 074°57'  
2014-Apr-04 10:24N 40°07' W 073°03'9 9.8
2014-Apr-04 09:28N 40°12' W 072°53'9 9.8
2014-Apr-04 08:34N 40°17' W 072°43'9 9.3
2014-Apr-04 07:34N 40°24' W 072°35'10 9.7
2014-Apr-04 06:33N 40°30' W 072°25'10 9.6
2014-Apr-04 05:34N 40°35' W 072°15'9 9.5
2014-Apr-04 04:33N 40°41' W 072°04'9 9.3
2014-Apr-04 03:33N 40°47' W 071°55'9 9.3
2014-Apr-04 02:33N 40°53' W 071°46'9 9.4
2014-Apr-04 01:34N 40°59' W 071°36'10 9.7
2014-Apr-04 00:33N 41°06' W 071°27'10 9.4
2014-Apr-03 23:33N 41°13' W 071°18'9 9.5
2014-Apr-03 22:33N 41°20' W 071°11'10 9.6
2014-Apr-03 21:32N 41°27' W 071°01'136 5.4
2014-Apr-02 20:24N 43°37' W 070°12'40 6.8
2014-Apr-02 14:33N 43°04' W 070°42'  

Dump ship's entire track history

sailing weather and tide predictions

Irish Sea — WDB5555 — position and weather